createdAt,value
2022-12-15T00:02:19.592Z,-4.86
2022-12-15T00:07:29.781Z,-4.82
2022-12-15T00:12:40.211Z,-5.00
2022-12-15T00:17:50.188Z,-5.29
2022-12-15T00:23:00.272Z,-4.68
2022-12-15T00:28:10.500Z,-4.79
2022-12-15T00:33:26.677Z,-5.66
2022-12-15T00:38:36.943Z,-4.86
2022-12-15T00:43:33.824Z,-5.09
2022-12-15T00:48:25.609Z,-5.48
2022-12-15T00:53:35.969Z,-5.57
2022-12-15T00:58:46.666Z,-4.91
2022-12-15T01:03:56.939Z,-4.95
2022-12-15T01:09:07.169Z,-5.58
2022-12-15T01:14:17.383Z,-5.06
2022-12-15T01:19:27.785Z,-5.09
2022-12-15T01:24:19.309Z,-5.27
2022-12-15T01:29:10.880Z,-5.06
2022-12-15T01:34:02.445Z,-5.27
2022-12-15T01:38:54.638Z,-5.35
2022-12-15T01:43:46.746Z,-5.02
2022-12-15T01:49:12.032Z,-5.04
2022-12-15T01:54:23.300Z,-5.05
2022-12-15T01:59:20.882Z,-5.32
2022-12-15T02:04:12.636Z,-5.64
2022-12-15T02:09:04.897Z,-5.87
2022-12-15T02:14:08.116Z,-5.75
2022-12-15T02:19:19.305Z,-5.84
2022-12-15T02:24:29.701Z,-5.40
2022-12-15T02:29:38.452Z,-6.14
2022-12-15T02:34:48.229Z,-5.46
2022-12-15T02:39:39.908Z,-5.90
2022-12-15T02:44:53.094Z,-5.75
2022-12-15T02:50:09.783Z,-5.87
2022-12-15T02:55:29.185Z,-5.68
2022-12-15T03:00:21.891Z,-6.30
2022-12-15T03:05:14.927Z,-6.05
2022-12-15T03:10:07.402Z,-6.15
2022-12-15T03:14:58.970Z,-6.51
2022-12-15T03:19:50.509Z,-6.12
2022-12-15T03:24:42.193Z,-6.00
2022-12-15T03:29:33.749Z,-5.80
2022-12-15T03:34:26.093Z,-5.89
2022-12-15T03:39:17.644Z,-6.19
2022-12-15T03:44:09.297Z,-5.93
2022-12-15T03:49:00.899Z,-7.37
2022-12-15T03:53:53.665Z,-6.87
2022-12-15T03:58:45.287Z,-6.09
2022-12-15T04:03:36.897Z,-5.97
2022-12-15T04:08:28.449Z,-6.18
2022-12-15T04:13:19.953Z,-6.36
2022-12-15T04:18:11.589Z,-6.19
2022-12-15T04:23:03.247Z,-6.80
2022-12-15T04:28:14.430Z,-6.00
2022-12-15T04:33:29.202Z,-6.52
2022-12-15T04:38:50.277Z,-6.26
2022-12-15T04:44:01.030Z,-6.16
2022-12-15T04:49:11.206Z,-5.99
2022-12-15T04:54:21.494Z,-6.51
2022-12-15T04:59:31.714Z,-6.24
2022-12-15T05:04:42.171Z,-6.40
2022-12-15T05:09:52.513Z,-6.18
2022-12-15T05:15:02.720Z,-6.29
2022-12-15T05:20:12.901Z,-6.49
2022-12-15T05:25:23.020Z,-6.85
2022-12-15T05:30:33.232Z,-7.20
2022-12-15T05:35:25.020Z,-6.33
2022-12-15T05:40:16.675Z,-6.41
2022-12-15T05:45:10.047Z,-7.18
2022-12-15T05:50:01.808Z,-6.53
2022-12-15T05:54:53.373Z,-6.72
2022-12-15T05:59:45.029Z,-6.89
2022-12-15T06:04:36.636Z,-6.87
2022-12-15T06:09:28.991Z,-6.53
2022-12-15T06:14:20.553Z,-6.54
2022-12-15T06:19:12.172Z,-6.93
2022-12-15T06:24:06.029Z,-6.56
2022-12-15T06:29:02.508Z,-6.58
2022-12-15T06:34:01.376Z,-6.57
2022-12-15T06:38:53.977Z,-7.03
2022-12-15T06:43:50.701Z,-7.60
2022-12-15T06:48:46.676Z,-7.03
2022-12-15T06:53:40.791Z,-7.03
2022-12-15T06:58:32.483Z,-6.33
2022-12-15T07:03:24.917Z,-6.12
2022-12-15T07:08:16.746Z,-6.42
2022-12-15T07:13:12.495Z,-5.47
2022-12-15T07:18:04.045Z,-5.93
2022-12-15T07:22:55.850Z,-5.27
2022-12-15T07:27:47.486Z,-5.10
2022-12-15T07:32:39.053Z,-5.63
2022-12-15T07:37:30.830Z,-6.14
2022-12-15T07:42:22.465Z,-4.97
2022-12-15T07:47:15.141Z,-4.96
2022-12-15T07:52:06.714Z,-4.82
2022-12-15T07:57:00.181Z,-5.84
2022-12-15T08:01:52.555Z,-5.20
2022-12-15T08:06:44.563Z,-4.60
2022-12-15T08:11:36.271Z,-5.12
2022-12-15T08:16:29.203Z,-5.34
2022-12-15T08:21:20.883Z,-5.13
2022-12-15T08:26:15.049Z,-5.95
2022-12-15T08:31:09.276Z,-5.27
2022-12-15T08:36:03.069Z,-4.40
2022-12-15T08:40:54.762Z,-4.45
2022-12-15T08:45:46.562Z,-4.31
2022-12-15T08:50:38.254Z,-4.55
2022-12-15T08:55:29.935Z,-4.20
2022-12-15T09:00:21.670Z,-4.72
2022-12-15T09:05:13.385Z,-4.09
2022-12-15T09:10:05.362Z,-4.17
2022-12-15T09:14:56.982Z,-4.16
2022-12-15T09:19:48.551Z,-3.80
2022-12-15T09:24:40.421Z,-3.67
2022-12-15T09:29:32.935Z,-4.23
2022-12-15T09:34:24.503Z,-3.77
2022-12-15T09:39:16.943Z,-3.69
2022-12-15T09:44:21.049Z,-3.93
2022-12-15T09:49:22.619Z,-4.39
2022-12-15T09:54:14.250Z,-3.89
2022-12-15T09:59:22.076Z,-3.78
2022-12-15T10:04:31.385Z,-4.81
2022-12-15T10:09:30.144Z,-3.94
2022-12-15T10:14:46.173Z,-3.31
2022-12-15T10:19:46.665Z,-3.18
2022-12-15T10:25:09.097Z,-3.06
2022-12-15T10:30:05.218Z,-4.03
2022-12-15T10:34:56.944Z,-3.30
2022-12-15T10:39:50.704Z,-3.02
2022-12-15T10:44:45.413Z,-3.55
2022-12-15T10:49:42.349Z,-2.89
2022-12-15T10:54:45.494Z,-3.17
2022-12-15T10:59:40.762Z,-3.26
2022-12-15T11:04:33.695Z,-3.76
2022-12-15T11:09:33.187Z,-3.46
2022-12-15T11:14:40.775Z,-3.17
2022-12-15T11:19:44.736Z,-3.25
2022-12-15T11:25:09.970Z,-3.36
2022-12-15T11:30:19.552Z,-2.77
2022-12-15T11:35:14.429Z,-2.53
2022-12-15T11:40:28.537Z,-3.15
2022-12-15T11:45:41.584Z,-2.46
2022-12-15T11:50:51.423Z,-3.02
2022-12-15T11:55:57.855Z,-3.74
2022-12-15T12:01:04.742Z,-2.78
2022-12-15T12:06:01.330Z,-2.93
2022-12-15T12:11:39.317Z,-3.36
2022-12-15T12:16:53.019Z,-3.10
2022-12-15T12:21:53.262Z,-2.95
2022-12-15T12:26:48.749Z,-2.86
2022-12-15T12:31:57.716Z,-3.05
2022-12-15T12:36:58.816Z,-3.22
2022-12-15T12:42:04.702Z,-2.67
2022-12-15T12:46:58.617Z,-2.47
2022-12-15T12:51:54.019Z,-2.53
2022-12-15T13:02:21.466Z,-2.17
2022-12-15T13:07:32.043Z,-2.03
2022-12-15T13:12:51.636Z,-1.97
2022-12-15T13:17:51.091Z,-2.53
2022-12-15T13:22:43.372Z,-2.88
2022-12-15T13:27:37.043Z,-2.54
2022-12-15T13:32:46.683Z,-2.81
2022-12-15T13:37:49.028Z,-2.72
2022-12-15T13:42:53.050Z,-2.66
2022-12-15T13:47:53.543Z,-3.25
2022-12-15T13:53:22.955Z,-3.00
2022-12-15T13:58:18.106Z,-2.45
2022-12-15T14:03:12.843Z,-2.30
2022-12-15T14:08:10.806Z,-3.23
2022-12-15T14:13:16.276Z,-2.40
2022-12-15T14:18:41.375Z,-2.50
2022-12-15T14:23:58.046Z,-2.60
2022-12-15T14:29:05.494Z,-2.61
2022-12-15T14:34:08.704Z,-2.73
2022-12-15T14:39:05.313Z,-2.72
2022-12-15T14:44:31.230Z,-3.19
2022-12-15T14:49:22.947Z,-3.34
2022-12-15T14:54:38.155Z,-2.99
2022-12-15T14:59:33.760Z,-3.12
2022-12-15T15:03:11.193Z,-2.64
2022-12-15T15:04:29.856Z,-4.62
2022-12-15T15:09:25.759Z,-3.90
2022-12-15T15:14:28.641Z,-3.70
2022-12-15T15:19:22.664Z,-3.52
2022-12-15T15:24:14.178Z,-3.45
2022-12-15T15:29:36.457Z,-3.46
2022-12-15T15:34:27.970Z,-3.53
2022-12-15T15:39:21.449Z,-3.60
2022-12-15T15:44:15.458Z,-3.63
2022-12-15T15:49:09.381Z,-3.88
2022-12-15T15:54:23.350Z,-3.77
2022-12-15T15:59:17.930Z,-3.79
2022-12-15T16:04:09.542Z,-3.79
2022-12-15T16:09:01.790Z,-4.04
2022-12-15T16:13:53.495Z,-4.18
2022-12-15T16:18:45.868Z,-4.61
2022-12-15T16:23:37.652Z,-4.43
2022-12-15T16:28:31.258Z,-4.13
2022-12-15T16:33:23.443Z,-4.69
2022-12-15T16:38:22.591Z,-4.35
2022-12-15T16:43:19.876Z,-4.21
2022-12-15T16:48:12.492Z,-4.42
2022-12-15T16:53:04.592Z,-4.39
2022-12-15T16:58:05.407Z,-5.80
2022-12-15T17:02:57.388Z,-4.74
2022-12-15T17:07:54.599Z,-4.32
2022-12-15T17:12:47.370Z,-4.76
2022-12-15T17:17:38.974Z,-4.27
2022-12-15T17:22:30.558Z,-5.31
2022-12-15T17:27:28.059Z,-4.92
2022-12-15T17:32:19.642Z,-4.35
2022-12-15T17:37:14.139Z,-5.69
2022-12-15T17:42:16.859Z,-4.19
2022-12-15T17:47:08.987Z,-4.11
2022-12-15T17:52:05.081Z,-4.31
2022-12-15T17:56:56.661Z,-4.41
2022-12-15T18:01:49.149Z,-4.83
2022-12-15T18:06:43.430Z,-5.05
2022-12-15T18:11:35.057Z,-5.64
2022-12-15T18:16:26.704Z,-4.67
2022-12-15T18:21:18.249Z,-4.59
2022-12-15T18:26:13.208Z,-4.60
2022-12-15T18:31:14.872Z,-5.83
2022-12-15T18:36:06.680Z,-4.93
2022-12-15T18:41:01.064Z,-5.49
2022-12-15T18:45:52.860Z,-4.76
2022-12-15T18:50:46.397Z,-4.71
2022-12-15T18:55:37.968Z,-4.93
2022-12-15T19:00:30.354Z,-4.81
2022-12-15T19:05:28.374Z,-4.92
2022-12-15T19:10:19.987Z,-4.93
2022-12-15T19:15:19.565Z,-5.30
2022-12-15T19:20:38.625Z,-4.89
2022-12-15T19:25:31.358Z,-4.90
2022-12-15T19:30:22.883Z,-4.96
2022-12-15T19:35:14.573Z,-5.14
2022-12-15T19:40:07.471Z,-5.00
2022-12-15T19:45:01.394Z,-5.82
2022-12-15T19:49:53.548Z,-5.08
2022-12-15T19:54:49.703Z,-5.69
2022-12-15T19:59:42.014Z,-5.40
2022-12-15T20:04:34.001Z,-5.22
2022-12-15T20:09:25.569Z,-5.26
2022-12-15T20:14:17.864Z,-5.28
2022-12-15T20:19:09.992Z,-6.19
2022-12-15T20:24:07.708Z,-6.22
2022-12-15T20:28:59.369Z,-6.18
2022-12-15T20:33:52.152Z,-5.89
2022-12-15T20:38:44.721Z,-5.62
2022-12-15T20:43:36.569Z,-5.64
2022-12-15T20:48:30.014Z,-5.69
2022-12-15T20:53:25.288Z,-6.17
2022-12-15T20:58:18.405Z,-5.90
2022-12-15T21:03:20.760Z,-5.69
2022-12-15T21:08:25.417Z,-5.69
2022-12-15T21:13:22.662Z,-6.13
2022-12-15T21:18:57.292Z,-5.64
2022-12-15T21:23:30.864Z,-5.73
2022-12-15T21:28:23.534Z,-6.45
2022-12-15T21:33:15.797Z,-5.90
2022-12-15T21:38:20.162Z,-7.22
2022-12-15T21:43:11.874Z,-5.88
2022-12-15T21:48:22.028Z,-6.36
2022-12-15T21:53:17.326Z,-5.83
2022-12-15T21:58:19.625Z,-6.66
2022-12-15T22:03:11.339Z,-5.86
2022-12-15T22:08:18.337Z,-5.89
2022-12-15T22:13:14.760Z,-6.66
2022-12-15T22:18:11.981Z,-5.95
2022-12-15T22:23:03.796Z,-6.03
2022-12-15T22:27:56.222Z,-6.16
2022-12-15T22:32:49.276Z,-6.24
2022-12-15T22:37:41.065Z,-10.27
2022-12-15T22:42:32.661Z,-6.49
2022-12-15T22:47:24.612Z,-6.49
2022-12-15T22:52:18.713Z,-6.49
2022-12-15T22:57:20.563Z,-6.43
2022-12-15T23:02:12.384Z,-6.47
2022-12-15T23:07:07.676Z,-6.46
2022-12-15T23:11:59.318Z,-6.89
2022-12-15T23:16:50.933Z,-6.33
2022-12-15T23:21:42.622Z,-6.84
2022-12-15T23:26:34.179Z,-6.25
2022-12-15T23:31:25.779Z,-6.50
2022-12-15T23:36:17.463Z,-8.15
2022-12-15T23:41:15.645Z,-6.67
2022-12-15T23:46:07.304Z,-6.19
2022-12-15T23:51:20.317Z,-6.45
2022-12-15T23:56:17.263Z,-6.15
